SAS029 ESNU-ESSA
Flight info
| Callsign | SAS029 |
|---|---|
| Flight time | N/A |
| Altitude | FL320 |
| Route | DEDIT BODI SIPRI T31 VACRA |
| Aircraft | A320/M-S/N |
Departure
| Time | 2026-05-08 08:49 |
|---|---|
| Airport | Umeå Airport (ESNU) |
Arrival
| Time | N/A |
|---|---|
| Airport | Stockholm-Arlanda Airport (ESSA) |
| Time | Latitude | Longitude | Altitude | Speed | Heading |
|---|---|---|---|---|---|
| 2026-05-08 08:31 | 63.79369 | 20.28656 | 36 ft | 0 kts | 91° |
| 2026-05-08 08:34 | 63.79368 | 20.28657 | 36 ft | 0 kts | 91° |
| 2026-05-08 08:35 | 63.79368 | 20.28659 | 36 ft | 0 kts | 91° |
| 2026-05-08 08:35 | 63.79368 | 20.28660 | 36 ft | 0 kts | 91° |
| 2026-05-08 08:35 | 63.79368 | 20.28662 | 36 ft | 0 kts | 91° |
| 2026-05-08 08:35 | 63.79368 | 20.28663 | 36 ft | 0 kts | 91° |
| 2026-05-08 08:36 | 63.79368 | 20.28665 | 36 ft | 0 kts | 91° |
| 2026-05-08 08:36 | 63.79368 | 20.28666 | 36 ft | 0 kts | 91° |
| 2026-05-08 08:36 | 63.79368 | 20.28668 | 36 ft | 0 kts | 91° |
| 2026-05-08 08:36 | 63.79368 | 20.28670 | 36 ft | 0 kts | 91° |
| 2026-05-08 08:37 | 63.79368 | 20.28671 | 36 ft | 0 kts | 91° |
| 2026-05-08 08:37 | 63.79368 | 20.28673 | 36 ft | 0 kts | 91° |
| 2026-05-08 08:37 | 63.79368 | 20.28674 | 36 ft | 0 kts | 91° |
| 2026-05-08 08:37 | 63.79368 | 20.28676 | 36 ft | 0 kts | 91° |
| 2026-05-08 08:38 | 63.79368 | 20.28677 | 36 ft | 0 kts | 91° |
| 2026-05-08 08:38 | 63.79368 | 20.28678 | 36 ft | 0 kts | 91° |
| 2026-05-08 08:38 | 63.79368 | 20.28679 | 36 ft | 0 kts | 91° |
| 2026-05-08 08:38 | 63.79368 | 20.28680 | 36 ft | 0 kts | 91° |
| 2026-05-08 08:39 | 63.79368 | 20.28681 | 36 ft | 0 kts | 91° |
| 2026-05-08 08:39 | 63.79368 | 20.28682 | 36 ft | 0 kts | 91° |
| 2026-05-08 08:39 | 63.79368 | 20.28683 | 36 ft | 0 kts | 91° |
| 2026-05-08 08:39 | 63.79368 | 20.28684 | 36 ft | 0 kts | 91° |
| 2026-05-08 08:40 | 63.79368 | 20.28685 | 36 ft | 0 kts | 91° |
| 2026-05-08 08:40 | 63.79368 | 20.28686 | 36 ft | 0 kts | 91° |
| 2026-05-08 08:40 | 63.79368 | 20.28687 | 36 ft | 0 kts | 91° |
| 2026-05-08 08:41 | 63.79368 | 20.28688 | 36 ft | 0 kts | 91° |
| 2026-05-08 08:41 | 63.79368 | 20.28689 | 36 ft | 0 kts | 91° |
| 2026-05-08 08:41 | 63.79368 | 20.28690 | 36 ft | 0 kts | 91° |
| 2026-05-08 08:41 | 63.79368 | 20.28691 | 36 ft | 0 kts | 91° |
| 2026-05-08 08:42 | 63.79368 | 20.28692 | 36 ft | 0 kts | 91° |
| 2026-05-08 08:42 | 63.79368 | 20.28693 | 36 ft | 0 kts | 91° |
| 2026-05-08 08:42 | 63.79368 | 20.28694 | 36 ft | 0 kts | 91° |
| 2026-05-08 08:42 | 63.79368 | 20.28695 | 36 ft | 0 kts | 91° |
| 2026-05-08 08:43 | 63.79368 | 20.28696 | 36 ft | 0 kts | 91° |
| 2026-05-08 08:43 | 63.79368 | 20.28697 | 36 ft | 0 kts | 91° |
| 2026-05-08 08:43 | 63.79368 | 20.28698 | 36 ft | 0 kts | 91° |
| 2026-05-08 08:44 | 63.79367 | 20.28706 | 36 ft | 2 kts | 105° |
| 2026-05-08 08:44 | 63.79341 | 20.28725 | 36 ft | 6 kts | 179° |
| 2026-05-08 08:44 | 63.79279 | 20.28694 | 36 ft | 13 kts | 212° |
| 2026-05-08 08:44 | 63.79210 | 20.28541 | 36 ft | 15 kts | 229° |
| 2026-05-08 08:45 | 63.79166 | 20.28354 | 36 ft | 10 kts | 290° |
| 2026-05-08 08:45 | 63.79221 | 20.28197 | 36 ft | 16 kts | 317° |
| 2026-05-08 08:45 | 63.79326 | 20.27988 | 36 ft | 24 kts | 319° |
| 2026-05-08 08:45 | 63.79461 | 20.27715 | 36 ft | 29 kts | 318° |
| 2026-05-08 08:46 | 63.79626 | 20.27435 | 36 ft | 30 kts | 321° |
| 2026-05-08 08:46 | 63.79784 | 20.27128 | 36 ft | 30 kts | 319° |
| 2026-05-08 08:46 | 63.79880 | 20.26927 | 36 ft | 9 kts | 267° |
| 2026-05-08 08:46 | 63.79847 | 20.26900 | 36 ft | 7 kts | 128° |
| 2026-05-08 08:47 | 63.79810 | 20.27018 | 36 ft | 9 kts | 137° |
| 2026-05-08 08:47 | 63.79804 | 20.27031 | 36 ft | 2 kts | 137° |
| 2026-05-08 08:47 | 63.79787 | 20.27066 | 36 ft | 5 kts | 137° |
| 2026-05-08 08:47 | 63.79757 | 20.27130 | 36 ft | 7 kts | 137° |
| 2026-05-08 08:48 | 63.79705 | 20.27238 | 36 ft | 21 kts | 138° |
| 2026-05-08 08:48 | 63.79377 | 20.27886 | 36 ft | 102 kts | 139° |
| 2026-05-08 08:48 | 63.78708 | 20.29225 | 36 ft | 150 kts | 139° |
| 2026-05-08 08:48 | 63.77912 | 20.30902 | 578 ft | 165 kts | 139° |
| 2026-05-08 08:49 | 63.77028 | 20.32818 | 1017 ft | 186 kts | 139° |
| 2026-05-08 08:49 | 63.76076 | 20.34876 | 1426 ft | 197 kts | 139° |
| 2026-05-08 08:49 | 63.75066 | 20.37058 | 1834 ft | 204 kts | 139° |
| 2026-05-08 08:49 | 63.74034 | 20.39291 | 2237 ft | 209 kts | 139° |
| 2026-05-08 08:50 | 63.73064 | 20.41384 | 2606 ft | 212 kts | 140° |
| 2026-05-08 08:50 | 63.71792 | 20.43030 | 2992 ft | 213 kts | 164° |
| 2026-05-08 08:50 | 63.70325 | 20.43642 | 3451 ft | 221 kts | 175° |
| 2026-05-08 08:50 | 63.68741 | 20.44044 | 3867 ft | 236 kts | 177° |
| 2026-05-08 08:51 | 63.67083 | 20.44428 | 4272 ft | 244 kts | 178° |
| 2026-05-08 08:51 | 63.65398 | 20.44819 | 4671 ft | 249 kts | 178° |
| 2026-05-08 08:51 | 63.63882 | 20.45175 | 5023 ft | 253 kts | 178° |
| 2026-05-08 08:51 | 63.62132 | 20.45191 | 5422 ft | 254 kts | 190° |
| 2026-05-08 08:52 | 63.60408 | 20.44364 | 5845 ft | 256 kts | 198° |
| 2026-05-08 08:52 | 63.58696 | 20.43292 | 6248 ft | 257 kts | 200° |
| 2026-05-08 08:52 | 63.56985 | 20.42123 | 6649 ft | 257 kts | 201° |
| 2026-05-08 08:52 | 63.55278 | 20.40934 | 7052 ft | 258 kts | 201° |
| 2026-05-08 08:53 | 63.53561 | 20.39739 | 7450 ft | 260 kts | 201° |
| 2026-05-08 08:53 | 63.51831 | 20.38540 | 7851 ft | 261 kts | 202° |
| 2026-05-08 08:53 | 63.50089 | 20.37339 | 8245 ft | 263 kts | 200° |
| 2026-05-08 08:53 | 63.48335 | 20.36135 | 8649 ft | 266 kts | 201° |
| 2026-05-08 08:54 | 63.46561 | 20.34917 | 9050 ft | 268 kts | 201° |
| 2026-05-08 08:54 | 63.44778 | 20.33699 | 9449 ft | 270 kts | 201° |
| 2026-05-08 08:54 | 63.42981 | 20.32479 | 9849 ft | 272 kts | 201° |
| 2026-05-08 08:54 | 63.41167 | 20.31253 | 10249 ft | 275 kts | 202° |
| 2026-05-08 08:55 | 63.39316 | 20.30012 | 10664 ft | 287 kts | 202° |
| 2026-05-08 08:55 | 63.37313 | 20.28655 | 11086 ft | 315 kts | 202° |
| 2026-05-08 08:55 | 63.35150 | 20.27175 | 11499 ft | 336 kts | 202° |
| 2026-05-08 08:55 | 63.32873 | 20.25616 | 11907 ft | 349 kts | 202° |
| 2026-05-08 08:56 | 63.30525 | 20.24015 | 12312 ft | 358 kts | 201° |
| 2026-05-08 08:56 | 63.28130 | 20.22391 | 12756 ft | 364 kts | 201° |
| 2026-05-08 08:56 | 63.25708 | 20.20760 | 13205 ft | 370 kts | 201° |
| 2026-05-08 08:56 | 63.23212 | 20.19093 | 13660 ft | 375 kts | 201° |
| 2026-05-08 08:57 | 63.20728 | 20.17446 | 14109 ft | 379 kts | 201° |
| 2026-05-08 08:57 | 63.18219 | 20.15761 | 14557 ft | 382 kts | 201° |
| 2026-05-08 08:57 | 63.15666 | 20.14038 | 15008 ft | 386 kts | 201° |
| 2026-05-08 08:57 | 63.13099 | 20.12304 | 15457 ft | 389 kts | 201° |
| 2026-05-08 08:58 | 63.10500 | 20.10552 | 15908 ft | 392 kts | 201° |
| 2026-05-08 08:58 | 63.07886 | 20.08795 | 16358 ft | 396 kts | 201° |
| 2026-05-08 08:58 | 63.05249 | 20.07027 | 16808 ft | 399 kts | 201° |
| 2026-05-08 08:58 | 63.02580 | 20.05242 | 17259 ft | 403 kts | 201° |
| 2026-05-08 08:59 | 62.99901 | 20.03456 | 17708 ft | 406 kts | 201° |
| 2026-05-08 08:59 | 62.97193 | 20.01653 | 18158 ft | 410 kts | 201° |
| 2026-05-08 08:59 | 62.94459 | 19.99838 | 18608 ft | 413 kts | 199° |
| 2026-05-08 08:59 | 62.91718 | 19.98029 | 19057 ft | 416 kts | 201° |
| 2026-05-08 09:00 | 62.88942 | 19.96221 | 19506 ft | 419 kts | 201° |
| 2026-05-08 09:00 | 62.86138 | 19.94401 | 19956 ft | 423 kts | 202° |
| 2026-05-08 09:00 | 62.83318 | 19.92545 | 20405 ft | 427 kts | 202° |
| 2026-05-08 09:00 | 62.80462 | 19.90660 | 20855 ft | 431 kts | 202° |
| 2026-05-08 09:01 | 62.77588 | 19.88771 | 21304 ft | 436 kts | 202° |
| 2026-05-08 09:01 | 62.74676 | 19.86866 | 21753 ft | 440 kts | 202° |
| 2026-05-08 09:01 | 62.71726 | 19.84948 | 22204 ft | 445 kts | 202° |
| 2026-05-08 09:01 | 62.68751 | 19.83025 | 22653 ft | 450 kts | 202° |
| 2026-05-08 09:02 | 62.65734 | 19.81086 | 23118 ft | 454 kts | 204° |
| 2026-05-08 09:02 | 62.62721 | 19.79177 | 23581 ft | 450 kts | 204° |
| 2026-05-08 09:02 | 62.59732 | 19.77283 | 24031 ft | 447 kts | 204° |
| 2026-05-08 09:02 | 62.56782 | 19.75419 | 24474 ft | 446 kts | 204° |
| 2026-05-08 09:03 | 62.54220 | 19.73811 | 24859 ft | 447 kts | 204° |
| 2026-05-08 09:03 | 62.51237 | 19.71950 | 25307 ft | 448 kts | 204° |
| 2026-05-08 09:03 | 62.48245 | 19.70100 | 25756 ft | 449 kts | 204° |
| 2026-05-08 09:03 | 62.45236 | 19.68254 | 26205 ft | 452 kts | 204° |
| 2026-05-08 09:04 | 62.42217 | 19.66403 | 26654 ft | 454 kts | 205° |
| 2026-05-08 09:04 | 62.39179 | 19.64505 | 27105 ft | 456 kts | 205° |
| 2026-05-08 09:04 | 62.36128 | 19.62601 | 27552 ft | 460 kts | 204° |
| 2026-05-08 09:04 | 62.33052 | 19.60708 | 28001 ft | 463 kts | 204° |
| 2026-05-08 09:05 | 62.29937 | 19.58811 | 28452 ft | 467 kts | 204° |
| 2026-05-08 09:05 | 62.26806 | 19.56909 | 28902 ft | 471 kts | 205° |
| 2026-05-08 09:05 | 62.23657 | 19.54958 | 29352 ft | 474 kts | 205° |
| 2026-05-08 09:05 | 62.20484 | 19.52976 | 29805 ft | 476 kts | 205° |
| 2026-05-08 09:06 | 62.17316 | 19.50998 | 30254 ft | 477 kts | 205° |
| 2026-05-08 09:06 | 62.14125 | 19.49040 | 30702 ft | 479 kts | 204° |
| 2026-05-08 09:06 | 62.10917 | 19.47092 | 31150 ft | 481 kts | 204° |
| 2026-05-08 09:06 | 62.07696 | 19.45144 | 31598 ft | 482 kts | 203° |
| 2026-05-08 09:07 | 62.04476 | 19.43202 | 32045 ft | 481 kts | 203° |
| 2026-05-08 09:07 | 62.01257 | 19.41258 | 32276 ft | 482 kts | 203° |
| 2026-05-08 09:07 | 61.98036 | 19.39309 | 32386 ft | 483 kts | 203° |
| 2026-05-08 09:07 | 61.94820 | 19.37359 | 32392 ft | 483 kts | 203° |
| 2026-05-08 09:08 | 61.88375 | 19.33458 | 32384 ft | 480 kts | 203° |
| 2026-05-08 09:08 | 61.82004 | 19.29630 | 32385 ft | 475 kts | 202° |
| 2026-05-08 09:09 | 61.75685 | 19.25810 | 32387 ft | 472 kts | 202° |
| 2026-05-08 09:09 | 61.69419 | 19.22005 | 32358 ft | 471 kts | 203° |
| 2026-05-08 09:10 | 61.66273 | 19.20096 | 32158 ft | 471 kts | 203° |
| 2026-05-08 09:10 | 61.63133 | 19.18195 | 31755 ft | 471 kts | 203° |
| 2026-05-08 09:10 | 61.59987 | 19.16299 | 31272 ft | 470 kts | 203° |
| 2026-05-08 09:10 | 61.56869 | 19.14432 | 30777 ft | 467 kts | 203° |
| 2026-05-08 09:11 | 61.53794 | 19.12605 | 30284 ft | 464 kts | 202° |
| 2026-05-08 09:11 | 61.50709 | 19.10773 | 29785 ft | 460 kts | 202° |
| 2026-05-08 09:11 | 61.47656 | 19.08963 | 29285 ft | 457 kts | 202° |
| 2026-05-08 09:11 | 61.44609 | 19.07148 | 28786 ft | 456 kts | 202° |
| 2026-05-08 09:12 | 61.41569 | 19.05330 | 28286 ft | 454 kts | 202° |
| 2026-05-08 09:12 | 61.38548 | 19.03519 | 27788 ft | 452 kts | 202° |
| 2026-05-08 09:12 | 61.35542 | 19.01714 | 27289 ft | 449 kts | 202° |
| 2026-05-08 09:12 | 61.32555 | 18.99920 | 26790 ft | 447 kts | 202° |
| 2026-05-08 09:13 | 61.29580 | 18.98134 | 26290 ft | 443 kts | 202° |
| 2026-05-08 09:13 | 61.26654 | 18.96377 | 25802 ft | 440 kts | 202° |
| 2026-05-08 09:13 | 61.23718 | 18.94639 | 25344 ft | 442 kts | 202° |
| 2026-05-08 09:13 | 61.20738 | 18.92881 | 24898 ft | 449 kts | 202° |
| 2026-05-08 09:14 | 61.17745 | 18.91113 | 24455 ft | 453 kts | 201° |
| 2026-05-08 09:14 | 61.14724 | 18.89324 | 23996 ft | 454 kts | 201° |
| 2026-05-08 09:14 | 61.11686 | 18.87523 | 23524 ft | 454 kts | 201° |
| 2026-05-08 09:14 | 61.08661 | 18.85727 | 23052 ft | 452 kts | 201° |
| 2026-05-08 09:15 | 61.05659 | 18.83944 | 22580 ft | 450 kts | 201° |
| 2026-05-08 09:15 | 61.02653 | 18.82197 | 22106 ft | 448 kts | 201° |
| 2026-05-08 09:15 | 60.99672 | 18.80489 | 21633 ft | 445 kts | 200° |
| 2026-05-08 09:15 | 60.96707 | 18.78789 | 21159 ft | 441 kts | 200° |
| 2026-05-08 09:16 | 60.93775 | 18.77087 | 20685 ft | 437 kts | 200° |
| 2026-05-08 09:16 | 60.90890 | 18.75400 | 20214 ft | 434 kts | 200° |
| 2026-05-08 09:16 | 60.88009 | 18.73704 | 19740 ft | 430 kts | 200° |
| 2026-05-08 09:16 | 60.85153 | 18.72016 | 19266 ft | 427 kts | 200° |
| 2026-05-08 09:17 | 60.82315 | 18.70365 | 18792 ft | 424 kts | 200° |
| 2026-05-08 09:17 | 60.79485 | 18.68750 | 18316 ft | 420 kts | 199° |
| 2026-05-08 09:17 | 60.76687 | 18.67159 | 17841 ft | 418 kts | 199° |
| 2026-05-08 09:17 | 60.73915 | 18.65576 | 17371 ft | 416 kts | 199° |
| 2026-05-08 09:18 | 60.71137 | 18.63981 | 16895 ft | 414 kts | 199° |
| 2026-05-08 09:18 | 60.68384 | 18.62405 | 16422 ft | 412 kts | 199° |
| 2026-05-08 09:18 | 60.65631 | 18.60840 | 15949 ft | 410 kts | 198° |
| 2026-05-08 09:18 | 60.62892 | 18.59285 | 15475 ft | 408 kts | 198° |
| 2026-05-08 09:19 | 60.60181 | 18.57743 | 15002 ft | 404 kts | 198° |
| 2026-05-08 09:19 | 60.57490 | 18.56207 | 14529 ft | 401 kts | 198° |
| 2026-05-08 09:19 | 60.54822 | 18.54678 | 14055 ft | 398 kts | 198° |
| 2026-05-08 09:19 | 60.52175 | 18.53153 | 13580 ft | 394 kts | 198° |
| 2026-05-08 09:20 | 60.49576 | 18.51649 | 13110 ft | 391 kts | 198° |
| 2026-05-08 09:20 | 60.46973 | 18.50134 | 12634 ft | 387 kts | 198° |
| 2026-05-08 09:20 | 60.44403 | 18.48633 | 12161 ft | 384 kts | 198° |
| 2026-05-08 09:20 | 60.41875 | 18.47148 | 11691 ft | 381 kts | 198° |
| 2026-05-08 09:21 | 60.39364 | 18.45658 | 11220 ft | 378 kts | 198° |
| 2026-05-08 09:21 | 60.36852 | 18.44173 | 10724 ft | 374 kts | 198° |
| 2026-05-08 09:22 | 60.23797 | 18.34274 | 7742 ft | 300 kts | 211° |
| 2026-05-08 09:23 | 60.22044 | 18.32195 | 7461 ft | 283 kts | 212° |
| 2026-05-08 09:23 | 60.20391 | 18.30213 | 7262 ft | 274 kts | 212° |
| 2026-05-08 09:23 | 60.18786 | 18.28280 | 6992 ft | 270 kts | 212° |
| 2026-05-08 09:23 | 60.17196 | 18.26357 | 6537 ft | 268 kts | 212° |
| 2026-05-08 09:24 | 60.15806 | 18.24664 | 6140 ft | 264 kts | 212° |
| 2026-05-08 09:24 | 60.14274 | 18.22776 | 5695 ft | 260 kts | 212° |
| 2026-05-08 09:24 | 60.12756 | 18.20890 | 5246 ft | 256 kts | 212° |
| 2026-05-08 09:24 | 60.11258 | 18.19013 | 4795 ft | 253 kts | 212° |
| 2026-05-08 09:25 | 60.09797 | 18.17163 | 4348 ft | 250 kts | 212° |
| 2026-05-08 09:25 | 60.08344 | 18.15301 | 3898 ft | 247 kts | 212° |
| 2026-05-08 09:25 | 60.06913 | 18.13442 | 3449 ft | 245 kts | 212° |
| 2026-05-08 09:25 | 60.05509 | 18.11596 | 3003 ft | 243 kts | 212° |
| 2026-05-08 09:26 | 60.04101 | 18.09741 | 2552 ft | 242 kts | 211° |
| 2026-05-08 09:26 | 60.02553 | 18.08491 | 1777 ft | 250 kts | 193° |
| 2026-05-08 09:26 | 60.00902 | 18.08211 | 2090 ft | 206 kts | 179° |
| 2026-05-08 09:26 | 59.99591 | 18.08105 | 3700 ft | 173 kts | 184° |
| 2026-05-08 09:27 | 59.98399 | 18.07839 | 4659 ft | 191 kts | 187° |
| 2026-05-08 09:27 | 59.97123 | 18.07487 | 3787 ft | 222 kts | 188° |
| 2026-05-08 09:27 | 59.95491 | 18.06942 | 2502 ft | 258 kts | 189° |
| 2026-05-08 09:27 | 59.93707 | 18.06325 | 1585 ft | 252 kts | 189° |
| 2026-05-08 09:28 | 59.92126 | 18.05749 | 839 ft | 219 kts | 189° |
| 2026-05-08 09:28 | 59.90689 | 18.05187 | 366 ft | 207 kts | 190° |
| 2026-05-08 09:28 | 59.89328 | 18.04635 | 233 ft | 192 kts | 191° |
| 2026-05-08 09:28 | 59.88148 | 18.04146 | 1368 ft | 159 kts | 191° |
| 2026-05-08 09:29 | 59.87150 | 18.03722 | 2421 ft | 141 kts | 191° |
| 2026-05-08 09:29 | 59.86273 | 18.03340 | 3373 ft | 119 kts | 191° |
| 2026-05-08 09:29 | 59.85459 | 18.02981 | 3934 ft | 128 kts | 192° |
| 2026-05-08 09:29 | 59.84592 | 18.02604 | 4016 ft | 117 kts | 192° |
| 2026-05-08 09:30 | 59.83789 | 18.02260 | 4545 ft | 119 kts | 192° |
| 2026-05-08 09:30 | 59.82979 | 18.01916 | 5037 ft | 127 kts | 193° |
| 2026-05-08 09:30 | 59.82160 | 18.01396 | 5441 ft | 120 kts | 200° |
| 2026-05-08 09:30 | 59.81306 | 18.00821 | 5364 ft | 144 kts | 198° |
| 2026-05-08 09:31 | 59.80304 | 18.00651 | 5132 ft | 134 kts | 185° |
| 2026-05-08 09:31 | 59.79361 | 18.00505 | 5485 ft | 141 kts | 182° |
| 2026-05-08 09:31 | 59.78372 | 18.00485 | 5667 ft | 147 kts | 187° |
| 2026-05-08 09:31 | 59.77341 | 18.00288 | 5373 ft | 156 kts | 179° |
| 2026-05-08 09:32 | 59.76286 | 18.00110 | 4830 ft | 156 kts | 193° |
| 2026-05-08 09:32 | 59.75168 | 17.99963 | 3969 ft | 162 kts | 178° |
| 2026-05-08 09:32 | 59.74051 | 17.99388 | 3017 ft | 164 kts | 189° |
| 2026-05-08 09:32 | 59.72954 | 17.99230 | 2601 ft | 152 kts | 192° |
| 2026-05-08 09:33 | 59.71917 | 17.98714 | 2125 ft | 154 kts | 187° |
| 2026-05-08 09:33 | 59.70926 | 17.98263 | 1766 ft | 144 kts | 195° |
| 2026-05-08 09:33 | 59.69950 | 17.97800 | 1467 ft | 144 kts | 191° |
| 2026-05-08 09:33 | 59.68975 | 17.97376 | 1021 ft | 145 kts | 189° |
| 2026-05-08 09:34 | 59.68015 | 17.97006 | 744 ft | 138 kts | 190° |
| 2026-05-08 09:34 | 59.67067 | 17.96700 | 712 ft | 140 kts | 188° |
| 2026-05-08 09:34 | 59.66110 | 17.96356 | 432 ft | 138 kts | 189° |
| 2026-05-08 09:34 | 59.65162 | 17.95997 | 216 ft | 137 kts | 189° |
| 2026-05-08 09:35 | 59.64252 | 17.95649 | 136 ft | 127 kts | 189° |
| 2026-05-08 09:35 | 59.63370 | 17.95337 | 136 ft | 133 kts | 189° |
| 2026-05-08 09:35 | 59.63045 | 17.95223 | 136 ft | 135 kts | 191° |
| 2026-05-08 09:35 | 59.62808 | 17.95133 | 136 ft | 136 kts | 191° |
| 2026-05-08 09:36 | 59.62776 | 17.95120 | 136 ft | 137 kts | 191° |